Merelbeke, Belgium
Current Conditions -  °F | °C
As of 8:25 PM on Tuesday 21 Oct 2014 (Local Time) from EBCV Reporting Station
Broken Clouds Broken Clouds  
Wind Chill: 50°   Ceiling: 15000
Heat Index: 50°   Visibility: 6mi
Dew Point: 41°   Wind: 21mph
Humidity: 71%   Direction: 270°W
Pressure: 29.85"   Gusts: NA
Location:  50.99°N, 3.75°E
Report Text: EBCV 211825Z AUTO 27018KT 9999 FEW043/// BKN150/// 10/05 Q1011 BLU
Loading
Personal Weather Stations






























Interactive Weather Map
Tropical Storm Tracking
New forecast layout! Learn more

10-Day Weather Forecast

Advertisements
Track Severe Weather on mobile